createdAt,value
2023-02-01T00:01:32.886Z,99718.13
2023-02-01T00:04:00.935Z,99719.40
2023-02-01T00:06:28.981Z,99713.22
2023-02-01T00:08:57.233Z,99720.98
2023-02-01T00:11:26.230Z,99724.21
2023-02-01T00:13:54.331Z,99713.70
2023-02-01T00:16:29.669Z,99728.50
2023-02-01T00:19:04.331Z,99723.57
2023-02-01T00:21:33.375Z,99722.46
2023-02-01T00:24:01.367Z,99732.15
2023-02-01T00:26:40.164Z,99732.29
2023-02-01T00:29:19.875Z,99740.09
2023-02-01T00:31:50.337Z,99734.52
2023-02-01T00:34:20.343Z,99724.80
2023-02-01T00:36:48.714Z,99726.58
2023-02-01T00:39:16.966Z,99726.94
2023-02-01T00:41:44.992Z,99728.16
2023-02-01T00:44:13.027Z,99730.19
2023-02-01T00:46:41.183Z,99733.30
2023-02-01T00:49:10.189Z,99745.86
2023-02-01T00:51:38.155Z,99739.98
2023-02-01T00:54:06.547Z,99740.60
2023-02-01T00:56:34.570Z,99741.42
2023-02-01T00:59:02.555Z,99742.98
2023-02-01T01:01:30.634Z,99743.09
2023-02-01T01:04:00.756Z,99748.62
2023-02-01T01:06:32.179Z,99748.29
2023-02-01T01:09:03.875Z,99755.08
2023-02-01T01:11:36.451Z,99747.05
2023-02-01T01:14:06.825Z,99752.77
2023-02-01T01:16:35.115Z,99755.39
2023-02-01T01:19:03.906Z,99749.91
2023-02-01T01:21:32.315Z,99746.66
2023-02-01T01:24:00.684Z,99747.45
2023-02-01T01:26:30.575Z,99746.46
2023-02-01T01:29:00.271Z,99744.63
2023-02-01T01:31:29.426Z,99744.14
2023-02-01T01:34:00.396Z,99744.30
2023-02-01T01:36:30.327Z,99749.02
2023-02-01T01:38:58.731Z,99745.73
2023-02-01T01:41:32.177Z,99752.08
2023-02-01T01:44:26.855Z,99751.73
2023-02-01T01:46:54.943Z,99751.56
2023-02-01T01:49:27.077Z,99752.23
2023-02-01T01:52:03.411Z,99750.81
2023-02-01T01:54:39.745Z,99753.50
2023-02-01T01:57:15.591Z,99752.96
2023-02-01T01:59:51.025Z,99756.21
2023-02-01T02:02:19.182Z,99755.15
2023-02-01T02:04:48.797Z,99744.17
2023-02-01T02:07:22.608Z,99747.27
2023-02-01T02:09:59.860Z,99746.89
2023-02-01T02:12:29.567Z,99744.54
2023-02-01T02:14:57.722Z,99747.79
2023-02-01T02:18:02.083Z,99743.23
2023-02-01T02:21:18.073Z,99739.73
2023-02-01T02:24:21.279Z,99736.15
2023-02-01T02:27:06.646Z,99739.11
2023-02-01T02:30:14.063Z,99729.15
2023-02-01T02:33:08.050Z,99744.10
2023-02-01T02:36:05.259Z,99741.64
2023-02-01T02:38:44.554Z,99742.05
2023-02-01T02:41:48.524Z,99735.42
2023-02-01T02:45:03.658Z,99734.50
2023-02-01T02:48:03.829Z,99738.32
2023-02-01T02:51:06.946Z,99733.87
2023-02-01T02:54:11.204Z,99740.94
2023-02-01T02:56:59.653Z,99743.63
2023-02-01T02:59:49.141Z,99738.33
2023-02-01T03:02:37.678Z,99746.39
2023-02-01T03:05:06.393Z,99752.10
2023-02-01T03:08:04.601Z,99745.58
2023-02-01T03:11:00.428Z,99741.05
2023-02-01T03:13:52.341Z,99745.39
2023-02-01T03:16:33.028Z,99744.11
2023-02-01T03:19:52.728Z,99732.91
2023-02-01T03:22:32.809Z,99724.95
2023-02-01T03:25:13.516Z,99730.92
2023-02-01T03:27:52.352Z,99729.70
2023-02-01T03:30:30.910Z,99716.38
2023-02-01T03:33:03.688Z,99717.09
2023-02-01T03:36:11.059Z,99711.65
2023-02-01T03:39:24.000Z,99710.71
2023-02-01T03:42:00.004Z,99713.73
2023-02-01T03:44:42.465Z,99713.45
2023-02-01T03:47:37.492Z,99716.66
2023-02-01T03:50:10.640Z,99721.23
2023-02-01T03:52:47.903Z,99709.80
2023-02-01T03:55:21.208Z,99714.24
2023-02-01T03:58:04.785Z,99713.25
2023-02-01T04:00:32.940Z,99719.58
2023-02-01T04:03:02.235Z,99706.55
2023-02-01T04:05:31.371Z,99715.73
2023-02-01T04:08:06.026Z,99707.61
2023-02-01T04:10:34.302Z,99701.27
2023-02-01T04:13:02.341Z,99700.81
2023-02-01T04:15:30.355Z,99694.45
2023-02-01T04:17:58.295Z,99702.48
2023-02-01T04:20:26.361Z,99699.13
2023-02-01T04:22:55.124Z,99706.66
2023-02-01T04:25:23.343Z,99707.65
2023-02-01T04:27:51.366Z,99695.28
2023-02-01T04:30:19.497Z,99700.91
2023-02-01T04:32:47.737Z,99693.98
2023-02-01T04:35:15.915Z,99704.44
2023-02-01T04:37:43.916Z,99702.14
2023-02-01T04:40:12.598Z,99703.94
2023-02-01T04:42:40.588Z,99701.61
2023-02-01T04:45:09.834Z,99703.50
2023-02-01T04:47:37.876Z,99700.95
2023-02-01T04:50:06.893Z,99700.91
2023-02-01T04:52:35.907Z,99699.56
2023-02-01T04:55:05.111Z,99699.92
2023-02-01T04:57:33.139Z,99692.48
2023-02-01T05:00:01.284Z,99689.06
2023-02-01T05:02:29.310Z,99688.56
2023-02-01T05:04:57.485Z,99686.80
2023-02-01T05:07:25.508Z,99686.54
2023-02-01T05:09:53.524Z,99684.38
2023-02-01T05:12:40.112Z,99683.11
2023-02-01T05:15:08.511Z,99681.52
2023-02-01T05:17:36.506Z,99683.27
2023-02-01T05:20:05.385Z,99683.34
2023-02-01T05:22:33.403Z,99687.10
2023-02-01T05:25:01.330Z,99685.66
2023-02-01T05:27:31.915Z,99692.30
2023-02-01T05:29:59.886Z,99688.42
2023-02-01T05:32:27.937Z,99689.86
2023-02-01T05:34:56.412Z,99687.92
2023-02-01T05:37:24.432Z,99693.73
2023-02-01T05:39:52.494Z,99691.05
2023-02-01T05:42:20.559Z,99691.91
2023-02-01T05:44:48.506Z,99691.45
2023-02-01T05:47:16.532Z,99695.19
2023-02-01T05:49:44.525Z,99696.83
2023-02-01T05:52:12.512Z,99696.84
2023-02-01T05:54:40.428Z,99700.85
2023-02-01T05:57:08.595Z,99707.52
2023-02-01T05:59:41.959Z,99702.82
2023-02-01T06:02:11.117Z,99700.39
2023-02-01T06:04:40.157Z,99701.92
2023-02-01T06:07:11.341Z,99704.39
2023-02-01T06:09:39.461Z,99702.10
2023-02-01T06:12:07.772Z,99700.00
2023-02-01T06:14:35.880Z,99704.43
2023-02-01T06:17:03.900Z,99711.46
2023-02-01T06:19:31.892Z,99712.53
2023-02-01T06:21:59.893Z,99709.34
2023-02-01T06:24:27.907Z,99710.96
2023-02-01T06:26:55.913Z,99710.83
2023-02-01T06:29:24.195Z,99712.98
2023-02-01T06:31:52.224Z,99708.96
2023-02-01T06:34:22.219Z,99707.13
2023-02-01T06:36:51.020Z,99708.02
2023-02-01T06:39:19.104Z,99704.88
2023-02-01T06:41:49.471Z,99700.60
2023-02-01T06:44:17.974Z,99696.52
2023-02-01T06:46:46.112Z,99701.70
2023-02-01T06:49:14.200Z,99700.61
2023-02-01T06:51:42.252Z,99705.08
2023-02-01T06:54:10.297Z,99703.90
2023-02-01T06:56:38.210Z,99706.25
2023-02-01T06:59:08.309Z,99708.83
2023-02-01T07:01:36.256Z,99708.59
2023-02-01T07:04:04.613Z,99704.51
2023-02-01T07:06:32.926Z,99703.48
2023-02-01T07:09:01.609Z,99703.95
2023-02-01T07:11:29.742Z,99704.23
2023-02-01T07:13:57.764Z,99706.31
2023-02-01T07:16:25.963Z,99704.78
2023-02-01T07:18:54.086Z,99712.17
2023-02-01T07:21:22.308Z,99720.48
2023-02-01T07:23:50.332Z,99716.09
2023-02-01T07:26:18.385Z,99716.18
2023-02-01T07:28:47.788Z,99719.88
2023-02-01T07:31:20.238Z,99719.90
2023-02-01T07:33:55.977Z,99720.65
2023-02-01T07:36:25.275Z,99722.25
2023-02-01T07:38:56.368Z,99723.89
2023-02-01T07:41:25.009Z,99726.29
2023-02-01T07:43:54.466Z,99723.81
2023-02-01T07:46:22.653Z,99728.17
2023-02-01T07:48:50.826Z,99722.88
2023-02-01T07:51:19.060Z,99718.42
2023-02-01T07:53:47.242Z,99715.92
2023-02-01T07:56:23.483Z,99718.11
2023-02-01T07:58:55.680Z,99713.69
2023-02-01T08:01:26.757Z,99709.23
2023-02-01T08:04:00.287Z,99711.94
2023-02-01T08:06:37.688Z,99710.85
2023-02-01T08:09:07.229Z,99705.27
2023-02-01T08:11:37.513Z,99706.29
2023-02-01T08:14:06.929Z,99700.30
2023-02-01T08:16:37.560Z,99702.00
2023-02-01T08:19:05.852Z,99695.73
2023-02-01T08:21:39.816Z,99692.23
2023-02-01T08:24:10.914Z,99694.77
2023-02-01T08:26:39.020Z,99686.83
2023-02-01T08:29:11.473Z,99692.23
2023-02-01T08:31:41.814Z,99689.06
2023-02-01T08:34:10.941Z,99688.00
2023-02-01T08:36:39.213Z,99683.34
2023-02-01T08:39:09.977Z,99681.83
2023-02-01T08:41:38.954Z,99675.99
2023-02-01T08:44:06.882Z,99676.79
2023-02-01T08:46:34.959Z,99672.02
2023-02-01T08:49:03.124Z,99667.84
2023-02-01T08:51:31.071Z,99667.73
2023-02-01T08:53:59.050Z,99664.42
2023-02-01T08:56:27.147Z,99668.19
2023-02-01T08:58:55.159Z,99663.11
2023-02-01T09:01:23.362Z,99666.90
2023-02-01T09:03:51.568Z,99676.33
2023-02-01T09:06:19.649Z,99670.91
2023-02-01T09:08:47.947Z,99673.04
2023-02-01T09:11:20.223Z,99658.05
2023-02-01T09:13:49.864Z,99663.75
2023-02-01T09:16:18.032Z,99671.64
2023-02-01T09:18:56.190Z,99679.13
2023-02-01T09:21:34.720Z,99675.77
2023-02-01T09:24:03.191Z,99683.77
2023-02-01T09:26:32.838Z,99688.84
2023-02-01T09:29:02.053Z,99685.14
2023-02-01T09:31:31.866Z,99680.45
2023-02-01T09:33:59.997Z,99672.73
2023-02-01T09:36:30.195Z,99679.10
2023-02-01T09:39:00.741Z,99676.95
2023-02-01T09:41:44.096Z,99678.77
2023-02-01T09:45:02.622Z,99684.21
2023-02-01T09:47:32.718Z,99690.13
2023-02-01T09:50:24.437Z,99682.30
2023-02-01T09:53:11.509Z,99683.11
2023-02-01T09:55:48.339Z,99680.34
2023-02-01T09:59:16.458Z,99679.75
2023-02-01T10:01:44.610Z,99679.04
2023-02-01T10:04:17.303Z,99675.27
2023-02-01T10:07:03.140Z,99672.91
2023-02-01T10:09:50.707Z,99661.66
2023-02-01T10:12:30.192Z,99672.73
2023-02-01T10:15:42.687Z,99668.42
2023-02-01T10:18:43.205Z,99661.39
2023-02-01T10:21:42.973Z,99664.09
2023-02-01T10:24:38.284Z,99661.37
2023-02-01T10:27:22.472Z,99659.25
2023-02-01T10:30:15.243Z,99656.70
2023-02-01T10:32:43.483Z,99650.35
2023-02-01T10:35:18.979Z,99643.52
2023-02-01T10:37:47.737Z,99642.60
2023-02-01T10:40:26.647Z,99642.49
2023-02-01T10:43:02.901Z,99642.61
2023-02-01T10:45:34.577Z,99639.97
2023-02-01T10:48:05.142Z,99632.08
2023-02-01T10:50:59.240Z,99636.27
2023-02-01T10:53:57.441Z,99637.91
2023-02-01T10:56:29.008Z,99631.14
2023-02-01T10:59:14.950Z,99626.73
2023-02-01T11:01:48.919Z,99630.94
2023-02-01T11:04:24.861Z,99626.91
2023-02-01T11:07:14.922Z,99622.13
2023-02-01T11:09:51.230Z,99629.60
2023-02-01T11:12:37.123Z,99624.61
2023-02-01T11:15:22.222Z,99627.66
2023-02-01T11:17:53.655Z,99623.65
2023-02-01T11:20:42.987Z,99627.73
2023-02-01T11:23:22.271Z,99630.56
2023-02-01T11:26:01.043Z,99625.01
2023-02-01T11:28:34.478Z,99624.77
2023-02-01T11:31:11.291Z,99625.04
2023-02-01T11:33:49.130Z,99624.58
2023-02-01T11:36:22.009Z,99628.70
2023-02-01T11:39:16.321Z,99625.66
2023-02-01T11:42:18.222Z,99617.77
2023-02-01T11:44:48.172Z,99617.19
2023-02-01T11:47:40.848Z,99613.29
2023-02-01T11:50:29.459Z,99613.29
2023-02-01T11:53:46.905Z,99609.91
2023-02-01T11:56:36.805Z,99612.37
2023-02-01T11:59:28.538Z,99612.11
2023-02-01T12:02:36.785Z,99606.02
2023-02-01T12:05:37.626Z,99608.17
2023-02-01T12:09:11.584Z,99614.11
2023-02-01T12:12:03.136Z,99613.36
2023-02-01T12:14:49.972Z,99615.38
2023-02-01T12:17:54.876Z,99614.34
2023-02-01T12:21:07.007Z,99612.58
2023-02-01T12:23:56.470Z,99619.94
2023-02-01T12:26:43.842Z,99622.20
2023-02-01T12:29:49.351Z,99617.91
2023-02-01T12:32:32.994Z,99619.44
2023-02-01T12:35:19.594Z,99618.35
2023-02-01T12:38:11.914Z,99614.65
2023-02-01T12:41:23.902Z,99608.97
2023-02-01T12:44:02.611Z,99606.63
2023-02-01T12:46:39.119Z,99605.39
2023-02-01T12:49:18.211Z,99613.55
2023-02-01T12:51:53.197Z,99608.95
2023-02-01T12:54:46.518Z,99608.60
2023-02-01T12:57:41.184Z,99606.67
2023-02-01T13:00:36.474Z,99611.38
2023-02-01T13:03:26.449Z,99607.15
2023-02-01T13:06:29.269Z,99616.21
2023-02-01T13:09:32.078Z,99598.84
2023-02-01T13:12:13.525Z,99610.64
2023-02-01T13:14:53.383Z,99608.82
2023-02-01T13:17:30.966Z,99600.90
2023-02-01T13:20:22.607Z,99600.41
2023-02-01T13:22:58.925Z,99606.39
2023-02-01T13:25:36.335Z,99605.39
2023-02-01T13:28:24.860Z,99607.63
2023-02-01T13:31:31.014Z,99610.06
2023-02-01T13:35:09.659Z,99612.45
2023-02-01T13:37:43.813Z,99605.15
2023-02-01T13:41:22.611Z,99618.97
2023-02-01T13:43:55.462Z,99613.94
2023-02-01T13:46:23.649Z,99614.23
2023-02-01T13:48:58.465Z,99615.68
2023-02-01T13:51:49.290Z,99613.67
2023-02-01T13:54:39.681Z,99610.64
2023-02-01T13:57:38.744Z,99607.33
2023-02-01T14:00:37.357Z,99609.87
2023-02-01T14:03:05.317Z,99607.48
2023-02-01T14:05:35.236Z,99609.33
2023-02-01T14:08:15.220Z,99614.14
2023-02-01T14:10:46.551Z,99609.76
2023-02-01T14:13:38.483Z,99605.52
2023-02-01T14:16:10.211Z,99601.63
2023-02-01T14:18:38.324Z,99602.49
2023-02-01T14:21:46.775Z,99601.23
2023-02-01T14:24:28.157Z,99608.67
2023-02-01T14:27:29.240Z,99604.40
2023-02-01T14:30:08.031Z,99601.71
2023-02-01T14:32:42.599Z,99594.65
2023-02-01T14:35:22.224Z,99598.63
2023-02-01T14:38:05.375Z,99591.95
2023-02-01T14:40:35.313Z,99588.71
2023-02-01T14:43:03.404Z,99591.20
2023-02-01T14:45:31.301Z,99596.02
2023-02-01T14:48:08.553Z,99595.98
2023-02-01T14:50:42.597Z,99590.49
2023-02-01T14:53:10.705Z,99587.38
2023-02-01T14:55:51.263Z,99583.58
2023-02-01T14:59:01.640Z,99583.62
2023-02-01T15:01:34.662Z,99583.47
2023-02-01T15:04:22.905Z,99590.95
2023-02-01T15:07:12.730Z,99592.15
2023-02-01T15:09:48.016Z,99591.09
2023-02-01T15:12:25.502Z,99596.15
2023-02-01T15:15:22.049Z,99592.95
2023-02-01T15:17:55.605Z,99593.81
2023-02-01T15:20:34.328Z,99583.43
2023-02-01T15:23:06.628Z,99586.94
2023-02-01T15:25:39.596Z,99589.64
2023-02-01T15:28:15.115Z,99587.98
2023-02-01T15:31:05.458Z,99584.40
2023-02-01T15:33:33.752Z,99593.70
2023-02-01T15:36:12.865Z,99586.73
2023-02-01T15:38:45.573Z,99587.67
2023-02-01T15:41:19.758Z,99585.92
2023-02-01T15:44:21.285Z,99593.90
2023-02-01T15:46:52.012Z,99589.13
2023-02-01T15:49:32.992Z,99593.45
2023-02-01T15:52:02.906Z,99593.23
2023-02-01T15:54:49.699Z,99595.32
2023-02-01T15:57:32.768Z,99600.15
2023-02-01T16:00:08.982Z,99603.77
2023-02-01T16:02:53.517Z,99604.48
2023-02-01T16:05:38.477Z,99616.28
2023-02-01T16:08:26.863Z,99623.59
2023-02-01T16:11:03.072Z,99621.25
2023-02-01T16:13:31.132Z,99615.09
2023-02-01T16:15:59.299Z,99619.52
2023-02-01T16:18:27.276Z,99621.58
2023-02-01T16:20:55.255Z,99615.77
2023-02-01T16:23:23.436Z,99605.41
2023-02-01T16:25:51.632Z,99605.40
2023-02-01T16:28:19.719Z,99606.07
2023-02-01T16:30:49.864Z,99609.29
2023-02-01T16:33:22.939Z,99610.66
2023-02-01T16:35:52.000Z,99606.11
2023-02-01T16:38:23.129Z,99602.27
2023-02-01T16:40:51.532Z,99603.45
2023-02-01T16:43:25.362Z,99596.89
2023-02-01T16:45:56.305Z,99592.78
2023-02-01T16:48:31.071Z,99593.70
2023-02-01T16:51:11.966Z,99597.30
2023-02-01T16:53:53.435Z,99601.87
2023-02-01T16:56:21.693Z,99598.34
2023-02-01T16:58:50.391Z,99594.47
2023-02-01T17:01:20.446Z,99597.02
2023-02-01T17:03:48.982Z,99600.20
2023-02-01T17:06:26.207Z,99594.87
2023-02-01T17:08:58.992Z,99593.25
2023-02-01T17:11:30.909Z,99595.09
2023-02-01T17:14:17.752Z,99595.10
2023-02-01T17:16:49.195Z,99592.87
2023-02-01T17:19:24.149Z,99592.86
2023-02-01T17:21:56.518Z,99596.14
2023-02-01T17:24:38.944Z,99596.65
2023-02-01T17:27:16.121Z,99590.40
2023-02-01T17:29:46.995Z,99587.84
2023-02-01T17:32:25.614Z,99590.46
2023-02-01T17:34:53.878Z,99592.05
2023-02-01T17:37:34.566Z,99595.48
2023-02-01T17:40:03.545Z,99586.95
2023-02-01T17:42:31.611Z,99583.28
2023-02-01T17:45:34.776Z,99570.14
2023-02-01T17:48:05.999Z,99573.04
2023-02-01T17:50:37.871Z,99571.98
2023-02-01T17:53:09.609Z,99571.60
2023-02-01T17:55:42.032Z,99563.14
2023-02-01T17:58:15.537Z,99561.17
2023-02-01T18:00:45.714Z,99559.84
2023-02-01T18:03:27.765Z,99557.88
2023-02-01T18:05:58.259Z,99557.69
2023-02-01T18:08:29.604Z,99562.95
2023-02-01T18:11:01.704Z,99556.67
2023-02-01T18:13:32.961Z,99549.45
2023-02-01T18:16:02.056Z,99545.83
2023-02-01T18:18:33.424Z,99545.56
2023-02-01T18:21:01.583Z,99542.06
2023-02-01T18:23:29.895Z,99534.61
2023-02-01T18:25:57.992Z,99533.12
2023-02-01T18:28:25.998Z,99538.19
2023-02-01T18:30:54.364Z,99532.56
2023-02-01T18:33:22.992Z,99526.84
2023-02-01T18:35:51.962Z,99522.24
2023-02-01T18:38:20.279Z,99519.08
2023-02-01T18:40:54.723Z,99513.05
2023-02-01T18:43:22.830Z,99510.11
2023-02-01T18:45:51.159Z,99502.14
2023-02-01T18:48:22.295Z,99502.66
2023-02-01T18:50:57.440Z,99501.80
2023-02-01T18:53:28.249Z,99501.54
2023-02-01T18:55:58.544Z,99495.56
2023-02-01T18:58:27.367Z,99492.51
2023-02-01T19:00:57.993Z,99485.18
2023-02-01T19:03:26.842Z,99491.77
2023-02-01T19:05:57.052Z,99492.12
2023-02-01T19:08:25.815Z,99491.30
2023-02-01T19:10:55.042Z,99486.53
2023-02-01T19:13:25.852Z,99487.20
2023-02-01T19:15:53.912Z,99483.65
2023-02-01T19:18:22.394Z,99483.47
2023-02-01T19:20:51.561Z,99482.15
2023-02-01T19:23:19.634Z,99476.48
2023-02-01T19:25:49.012Z,99476.85
2023-02-01T19:28:17.223Z,99477.95
2023-02-01T19:30:45.341Z,99481.29
2023-02-01T19:33:13.465Z,99476.48
2023-02-01T19:35:41.474Z,99478.62
2023-02-01T19:38:11.374Z,99476.66
2023-02-01T19:40:39.444Z,99473.64
2023-02-01T19:43:07.452Z,99475.70
2023-02-01T19:45:35.878Z,99479.00
2023-02-01T19:48:07.379Z,99485.38
2023-02-01T19:50:35.544Z,99483.70
2023-02-01T19:53:03.563Z,99483.21
2023-02-01T19:55:32.229Z,99488.46
2023-02-01T19:58:02.349Z,99488.44
2023-02-01T20:00:30.361Z,99498.07
2023-02-01T20:02:58.547Z,99499.83
2023-02-01T20:05:26.841Z,99504.39
2023-02-01T20:07:55.043Z,99497.88
2023-02-01T20:10:23.232Z,99496.02
2023-02-01T20:12:51.287Z,99493.38
2023-02-01T20:15:22.139Z,99497.67
2023-02-01T20:17:50.529Z,99506.55
2023-02-01T20:20:18.590Z,99504.11
2023-02-01T20:22:46.614Z,99497.23
2023-02-01T20:25:14.818Z,99507.51
2023-02-01T20:27:43.804Z,99505.49
2023-02-01T20:30:14.244Z,99505.79
2023-02-01T20:32:42.501Z,99508.04
2023-02-01T20:35:10.463Z,99511.95
2023-02-01T20:37:38.864Z,99513.13
2023-02-01T20:40:07.964Z,99516.41
2023-02-01T20:42:36.518Z,99510.40
2023-02-01T20:45:05.641Z,99517.96
2023-02-01T20:47:35.155Z,99521.20
2023-02-01T20:50:06.877Z,99521.55
2023-02-01T20:52:34.881Z,99518.77
2023-02-01T20:55:02.991Z,99516.42
2023-02-01T20:57:32.353Z,99523.74
2023-02-01T21:00:00.449Z,99518.34
2023-02-01T21:02:28.512Z,99517.90
2023-02-01T21:04:56.814Z,99515.29
2023-02-01T21:07:25.119Z,99519.52
2023-02-01T21:09:56.644Z,99517.92
2023-02-01T21:12:24.685Z,99520.59
2023-02-01T21:14:52.664Z,99516.14
2023-02-01T21:17:22.216Z,99519.55
2023-02-01T21:19:50.181Z,99523.64
2023-02-01T21:22:18.180Z,99524.41
2023-02-01T21:24:49.072Z,99526.67
2023-02-01T21:27:17.537Z,99531.91
2023-02-01T21:29:45.529Z,99534.16
2023-02-01T21:32:13.619Z,99534.89
2023-02-01T21:34:44.453Z,99541.62
2023-02-01T21:37:14.762Z,99548.58
2023-02-01T21:39:42.791Z,99547.84
2023-02-01T21:42:14.100Z,99556.33
2023-02-01T21:44:46.161Z,99560.38
2023-02-01T21:47:19.728Z,99562.95
2023-02-01T21:49:50.594Z,99564.73
2023-02-01T21:52:18.968Z,99568.84
2023-02-01T21:54:47.308Z,99569.20
2023-02-01T21:57:15.280Z,99568.40
2023-02-01T21:59:44.228Z,99565.34
2023-02-01T22:02:16.120Z,99571.36
2023-02-01T22:04:44.906Z,99573.38
2023-02-01T22:07:13.070Z,99576.37
2023-02-01T22:09:41.397Z,99569.36
2023-02-01T22:12:13.242Z,99570.67
2023-02-01T22:14:44.834Z,99571.62
2023-02-01T22:17:13.490Z,99576.73
2023-02-01T22:19:42.491Z,99584.52
2023-02-01T22:22:11.700Z,99585.86
2023-02-01T22:24:39.695Z,99589.25
2023-02-01T22:27:13.497Z,99588.46
2023-02-01T22:29:43.577Z,99587.86
2023-02-01T22:32:13.792Z,99585.73
2023-02-01T22:34:41.995Z,99587.15
2023-02-01T22:37:11.281Z,99590.63
2023-02-01T22:39:41.039Z,99590.33
2023-02-01T22:42:09.412Z,99584.88
2023-02-01T22:44:37.490Z,99587.52
2023-02-01T22:47:05.489Z,99581.92
2023-02-01T22:49:33.493Z,99578.70
2023-02-01T22:52:01.774Z,99579.33
2023-02-01T22:54:30.026Z,99579.96
2023-02-01T22:57:00.137Z,99577.27
2023-02-01T22:59:28.640Z,99577.61
2023-02-01T23:01:56.779Z,99576.32
2023-02-01T23:04:24.929Z,99577.22
2023-02-01T23:06:53.240Z,99585.00
2023-02-01T23:09:25.932Z,99585.88
2023-02-01T23:11:55.256Z,99586.73
2023-02-01T23:14:23.539Z,99583.08
2023-02-01T23:16:51.728Z,99585.50
2023-02-01T23:19:20.568Z,99582.42
2023-02-01T23:21:49.655Z,99592.45
2023-02-01T23:24:17.716Z,99590.73
2023-02-01T23:26:46.023Z,99592.72
2023-02-01T23:29:18.647Z,99606.41
2023-02-01T23:31:46.909Z,99603.79
2023-02-01T23:34:15.135Z,99600.47
2023-02-01T23:36:46.232Z,99590.55
2023-02-01T23:39:14.234Z,99589.04
2023-02-01T23:41:42.222Z,99590.42
2023-02-01T23:44:10.470Z,99591.13
2023-02-01T23:46:44.369Z,99594.30
2023-02-01T23:49:15.949Z,99594.80
2023-02-01T23:51:47.456Z,99593.76
2023-02-01T23:54:15.482Z,99588.75
2023-02-01T23:56:46.155Z,99581.30
2023-02-01T23:59:20.777Z,99586.09
